sensor_id;sensor_type;location;lat;lon;timestamp;pressure;altitude;pressure_sealevel;temperature;humidity
77583;BME280;66726;52.388;9.986;2023-08-30T00:01:47;100171.81;;;15.65;74.64
77583;BME280;66726;52.388;9.986;2023-08-30T00:04:19;100168.06;;;15.66;73.31
77583;BME280;66726;52.388;9.986;2023-08-30T00:06:52;100177.41;;;15.57;74.18
77583;BME280;66726;52.388;9.986;2023-08-30T00:09:26;100180.13;;;15.51;74.07
77583;BME280;66726;52.388;9.986;2023-08-30T00:11:58;100174.06;;;15.49;74.36
77583;BME280;66726;52.388;9.986;2023-08-30T00:14:31;100176.78;;;15.55;74.84
77583;BME280;66726;52.388;9.986;2023-08-30T00:17:03;100178.63;;;15.48;74.68
77583;BME280;66726;52.388;9.986;2023-08-30T00:19:35;100180.88;;;15.45;73.91
77583;BME280;66726;52.388;9.986;2023-08-30T00:22:07;100176.72;;;15.36;75.19
77583;BME280;66726;52.388;9.986;2023-08-30T00:24:39;100177.31;;;15.31;75.14
77583;BME280;66726;52.388;9.986;2023-08-30T00:27:11;100179.00;;;15.32;74.07
77583;BME280;66726;52.388;9.986;2023-08-30T00:29:45;100180.84;;;15.25;73.78
77583;BME280;66726;52.388;9.986;2023-08-30T00:32:17;100171.50;;;15.21;74.58
77583;BME280;66726;52.388;9.986;2023-08-30T00:34:51;100179.59;;;15.21;74.50
77583;BME280;66726;52.388;9.986;2023-08-30T00:37:23;100175.66;;;15.17;73.92
77583;BME280;66726;52.388;9.986;2023-08-30T00:39:55;100171.28;;;15.16;74.14
77583;BME280;66726;52.388;9.986;2023-08-30T00:42:27;100161.34;;;15.10;73.71
77583;BME280;66726;52.388;9.986;2023-08-30T00:45:00;100164.41;;;15.07;73.48
77583;BME280;66726;52.388;9.986;2023-08-30T00:47:32;100167.09;;;15.07;73.30
77583;BME280;66726;52.388;9.986;2023-08-30T00:50:06;100166.47;;;14.98;73.78
77583;BME280;66726;52.388;9.986;2023-08-30T00:52:38;100167.91;;;15.01;73.59
77583;BME280;66726;52.388;9.986;2023-08-30T00:55:11;100167.72;;;14.96;73.85
77583;BME280;66726;52.388;9.986;2023-08-30T00:57:43;100166.66;;;14.97;73.83
77583;BME280;66726;52.388;9.986;2023-08-30T01:00:19;100165.63;;;14.98;73.54
77583;BME280;66726;52.388;9.986;2023-08-30T01:02:51;100179.94;;;14.92;74.67
77583;BME280;66726;52.388;9.986;2023-08-30T01:05:23;100180.94;;;14.91;75.42
77583;BME280;66726;52.388;9.986;2023-08-30T01:07:56;100164.78;;;14.91;75.36
77583;BME280;66726;52.388;9.986;2023-08-30T01:10:45;100169.75;;;14.87;75.97
77583;BME280;66726;52.388;9.986;2023-08-30T01:13:22;100162.31;;;14.89;75.05
77583;BME280;66726;52.388;9.986;2023-08-30T01:15:58;100169.75;;;14.87;74.72
77583;BME280;66726;52.388;9.986;2023-08-30T01:18:35;100163.53;;;14.93;74.48
77583;BME280;66726;52.388;9.986;2023-08-30T01:21:14;100165.44;;;14.93;74.26
77583;BME280;66726;52.388;9.986;2023-08-30T01:24:00;100168.88;;;14.80;74.74
77583;BME280;66726;52.388;9.986;2023-08-30T01:26:44;100165.94;;;14.68;74.34
77583;BME280;66726;52.388;9.986;2023-08-30T01:29:20;100162.38;;;14.55;75.43
77583;BME280;66726;52.388;9.986;2023-08-30T01:31:54;100156.94;;;14.48;74.86
77583;BME280;66726;52.388;9.986;2023-08-30T01:34:26;100159.41;;;14.43;73.88
77583;BME280;66726;52.388;9.986;2023-08-30T01:36:59;100152.59;;;14.47;74.43
77583;BME280;66726;52.388;9.986;2023-08-30T01:39:32;100156.94;;;14.48;74.49
77583;BME280;66726;52.388;9.986;2023-08-30T01:42:06;100156.25;;;14.40;74.69
77583;BME280;66726;52.388;9.986;2023-08-30T01:44:41;100149.16;;;14.32;75.63
77583;BME280;66726;52.388;9.986;2023-08-30T01:47:15;100155.44;;;14.39;75.03
77583;BME280;66726;52.388;9.986;2023-08-30T01:49:49;100145.28;;;14.35;74.88
77583;BME280;66726;52.388;9.986;2023-08-30T01:52:22;100142.13;;;14.31;74.46
77583;BME280;66726;52.388;9.986;2023-08-30T01:54:55;100142.13;;;14.31;74.86
77583;BME280;66726;52.388;9.986;2023-08-30T01:57:28;100139.56;;;14.23;75.02
77583;BME280;66726;52.388;9.986;2023-08-30T02:00:01;100145.16;;;14.21;75.15
77583;BME280;66726;52.388;9.986;2023-08-30T02:02:35;100141.41;;;14.16;75.05
77583;BME280;66726;52.388;9.986;2023-08-30T02:05:08;100144.09;;;14.16;75.46
77583;BME280;66726;52.388;9.986;2023-08-30T02:07:43;100144.22;;;14.08;75.75
77583;BME280;66726;52.388;9.986;2023-08-30T02:10:21;100137.84;;;14.09;75.95
77583;BME280;66726;52.388;9.986;2023-08-30T02:12:58;100138.66;;;14.09;75.95
77583;BME280;66726;52.388;9.986;2023-08-30T02:15:35;100139.28;;;14.11;75.29
77583;BME280;66726;52.388;9.986;2023-08-30T02:18:09;100136.41;;;14.13;75.24
77583;BME280;66726;52.388;9.986;2023-08-30T02:20:41;100136.72;;;13.97;74.67
77583;BME280;66726;52.388;9.986;2023-08-30T02:23:13;100136.94;;;14.02;74.67
77583;BME280;66726;52.388;9.986;2023-08-30T02:25:45;100133.16;;;13.90;75.04
77583;BME280;66726;52.388;9.986;2023-08-30T02:28:17;100133.91;;;13.84;75.79
77583;BME280;66726;52.388;9.986;2023-08-30T02:30:52;100131.19;;;13.77;76.38
77583;BME280;66726;52.388;9.986;2023-08-30T02:33:24;100135.75;;;13.77;76.40
77583;BME280;66726;52.388;9.986;2023-08-30T02:35:56;100128.44;;;13.70;75.95
77583;BME280;66726;52.388;9.986;2023-08-30T02:38:28;100137.56;;;13.69;76.75
77583;BME280;66726;52.388;9.986;2023-08-30T02:41:00;100132.19;;;13.69;76.09
77583;BME280;66726;52.388;9.986;2023-08-30T02:43:32;100140.88;;;13.71;76.25
77583;BME280;66726;52.388;9.986;2023-08-30T02:46:05;100137.63;;;13.76;75.73
77583;BME280;66726;52.388;9.986;2023-08-30T02:48:37;100135.75;;;13.77;75.80
77583;BME280;66726;52.388;9.986;2023-08-30T02:51:08;100130.94;;;13.72;76.20
77583;BME280;66726;52.388;9.986;2023-08-30T02:53:40;100124.09;;;13.69;75.61
77583;BME280;66726;52.388;9.986;2023-08-30T02:56:12;100132.31;;;13.61;76.30
77583;BME280;66726;52.388;9.986;2023-08-30T02:58:44;100130.63;;;13.60;76.79
77583;BME280;66726;52.388;9.986;2023-08-30T03:01:17;100129.63;;;13.61;77.01
77583;BME280;66726;52.388;9.986;2023-08-30T03:03:49;100132.13;;;13.63;76.59
77583;BME280;66726;52.388;9.986;2023-08-30T03:06:21;100135.13;;;13.53;76.93
77583;BME280;66726;52.388;9.986;2023-08-30T03:08:55;100131.47;;;13.61;76.84
77583;BME280;66726;52.388;9.986;2023-08-30T03:11:26;100135.78;;;13.55;77.22
77583;BME280;66726;52.388;9.986;2023-08-30T03:13:58;100135.53;;;13.50;76.85
77583;BME280;66726;52.388;9.986;2023-08-30T03:16:32;100141.28;;;13.47;76.72
77583;BME280;66726;52.388;9.986;2023-08-30T03:19:05;100141.69;;;13.44;77.54
77583;BME280;66726;52.388;9.986;2023-08-30T03:21:36;100137.19;;;13.30;77.40
77583;BME280;66726;52.388;9.986;2023-08-30T03:24:09;100137.59;;;13.27;77.72
77583;BME280;66726;52.388;9.986;2023-08-30T03:26:42;100127.22;;;13.24;78.27
77583;BME280;66726;52.388;9.986;2023-08-30T03:29:13;100124.97;;;13.28;78.03
77583;BME280;66726;52.388;9.986;2023-08-30T03:31:47;100125.56;;;13.23;77.31
77583;BME280;66726;52.388;9.986;2023-08-30T03:34:18;100126.84;;;13.27;77.59
77583;BME280;66726;52.388;9.986;2023-08-30T03:36:50;100128.19;;;13.16;76.71
77583;BME280;66726;52.388;9.986;2023-08-30T03:39:24;100130.88;;;13.16;77.88
77583;BME280;66726;52.388;9.986;2023-08-30T03:41:56;100136.69;;;13.20;77.33
77583;BME280;66726;52.388;9.986;2023-08-30T03:44:28;100134.50;;;13.09;78.21
77583;BME280;66726;52.388;9.986;2023-08-30T03:47:01;100119.03;;;13.11;78.50
77583;BME280;66726;52.388;9.986;2023-08-30T03:49:33;100118.81;;;13.12;77.37
77583;BME280;66726;52.388;9.986;2023-08-30T03:52:06;100113.34;;;13.06;78.10
77583;BME280;66726;52.388;9.986;2023-08-30T03:54:37;100114.75;;;13.02;78.45
77583;BME280;66726;52.388;9.986;2023-08-30T03:57:09;100118.22;;;12.96;78.03
77583;BME280;66726;52.388;9.986;2023-08-30T03:59:41;100113.28;;;12.99;78.37
77583;BME280;66726;52.388;9.986;2023-08-30T04:02:14;100099.41;;;12.96;78.63
77583;BME280;66726;52.388;9.986;2023-08-30T04:04:48;100099.41;;;12.96;79.04
77583;BME280;66726;52.388;9.986;2023-08-30T04:07:20;100102.16;;;13.02;78.31
77583;BME280;66726;52.388;9.986;2023-08-30T04:09:52;100101.16;;;13.03;77.00
77583;BME280;66726;52.388;9.986;2023-08-30T04:12:24;100098.00;;;13.00;77.80
77583;BME280;66726;52.388;9.986;2023-08-30T04:14:55;100097.50;;;12.90;78.35
77583;BME280;66726;52.388;9.986;2023-08-30T04:17:29;100087.31;;;12.85;79.06
77583;BME280;66726;52.388;9.986;2023-08-30T04:20:01;100087.75;;;12.89;79.15
77583;BME280;66726;52.388;9.986;2023-08-30T04:22:35;100074.97;;;12.91;79.48
77583;BME280;66726;52.388;9.986;2023-08-30T04:25:07;100080.97;;;12.93;78.44
77583;BME280;66726;52.388;9.986;2023-08-30T04:27:40;100097.97;;;12.79;79.92
77583;BME280;66726;52.388;9.986;2023-08-30T04:30:15;100093.38;;;12.73;79.95
77583;BME280;66726;52.388;9.986;2023-08-30T04:32:48;100099.84;;;12.78;80.01
77583;BME280;66726;52.388;9.986;2023-08-30T04:35:20;100085.22;;;12.81;80.39
77583;BME280;66726;52.388;9.986;2023-08-30T04:37:52;100081.25;;;12.77;80.05
77583;BME280;66726;52.388;9.986;2023-08-30T04:40:24;100085.38;;;12.79;80.39
77583;BME280;66726;52.388;9.986;2023-08-30T04:42:57;100082.88;;;12.78;81.02
77583;BME280;66726;52.388;9.986;2023-08-30T04:45:28;100078.16;;;12.80;80.50
77583;BME280;66726;52.388;9.986;2023-08-30T04:48:02;100085.84;;;12.83;80.83
77583;BME280;66726;52.388;9.986;2023-08-30T04:50:34;100081.69;;;12.80;81.25
77583;BME280;66726;52.388;9.986;2023-08-30T04:53:05;100082.06;;;12.77;81.50
77583;BME280;66726;52.388;9.986;2023-08-30T04:55:37;100075.03;;;12.76;81.72
77583;BME280;66726;52.388;9.986;2023-08-30T04:58:09;100078.56;;;12.77;82.28
77583;BME280;66726;52.388;9.986;2023-08-30T05:00:41;100091.91;;;12.70;82.42
77583;BME280;66726;52.388;9.986;2023-08-30T05:03:15;100094.66;;;12.77;82.74
77583;BME280;66726;52.388;9.986;2023-08-30T05:05:47;100099.38;;;12.75;81.79
77583;BME280;66726;52.388;9.986;2023-08-30T05:08:19;100093.28;;;12.81;82.55
77583;BME280;66726;52.388;9.986;2023-08-30T05:10:53;100099.38;;;12.75;82.95
77583;BME280;66726;52.388;9.986;2023-08-30T05:13:24;100093.63;;;12.78;82.55
77583;BME280;66726;52.388;9.986;2023-08-30T05:15:56;100097.81;;;12.80;83.07
77583;BME280;66726;52.388;9.986;2023-08-30T05:18:29;100102.44;;;12.71;83.37
77583;BME280;66726;52.388;9.986;2023-08-30T05:21:01;100105.03;;;12.80;83.83
77583;BME280;66726;52.388;9.986;2023-08-30T05:23:34;100096.41;;;12.84;84.15
77583;BME280;66726;52.388;9.986;2023-08-30T05:26:08;100102.88;;;12.90;83.19
77583;BME280;66726;52.388;9.986;2023-08-30T05:28:40;100098.13;;;12.92;83.85
77583;BME280;66726;52.388;9.986;2023-08-30T05:31:12;100097.72;;;12.95;83.60
77583;BME280;66726;52.388;9.986;2023-08-30T05:33:45;100094.69;;;12.98;83.83
77583;BME280;66726;52.388;9.986;2023-08-30T05:36:18;100095.31;;;13.00;84.07
77583;BME280;66726;52.388;9.986;2023-08-30T05:38:49;100093.09;;;13.03;84.52
77583;BME280;66726;52.388;9.986;2023-08-30T05:41:21;100094.75;;;13.04;84.40
77583;BME280;66726;52.388;9.986;2023-08-30T05:43:53;100088.34;;;13.05;84.55
77583;BME280;66726;52.388;9.986;2023-08-30T05:46:25;100084.47;;;13.08;84.43
77583;BME280;66726;52.388;9.986;2023-08-30T05:48:58;100087.81;;;13.10;84.50
77583;BME280;66726;52.388;9.986;2023-08-30T05:51:31;100083.44;;;13.09;84.17
77583;BME280;66726;52.388;9.986;2023-08-30T05:54:02;100086.88;;;13.03;84.91
77583;BME280;66726;52.388;9.986;2023-08-30T05:56:34;100085.19;;;13.02;85.53
77583;BME280;66726;52.388;9.986;2023-08-30T05:59:06;100082.34;;;13.03;85.22
77583;BME280;66726;52.388;9.986;2023-08-30T06:01:38;100072.22;;;13.05;85.33
77583;BME280;66726;52.388;9.986;2023-08-30T06:04:12;100067.44;;;13.01;85.83
77583;BME280;66726;52.388;9.986;2023-08-30T06:06:44;100064.63;;;13.09;85.35
77583;BME280;66726;52.388;9.986;2023-08-30T06:09:16;100072.97;;;13.14;85.15
77583;BME280;66726;52.388;9.986;2023-08-30T06:11:48;100057.72;;;13.21;85.29
77583;BME280;66726;52.388;9.986;2023-08-30T06:14:21;100055.28;;;13.26;85.54
77583;BME280;66726;52.388;9.986;2023-08-30T06:16:53;100058.22;;;13.31;85.10
77583;BME280;66726;52.388;9.986;2023-08-30T06:19:26;100064.88;;;13.35;85.85
77583;BME280;66726;52.388;9.986;2023-08-30T06:21:58;100061.19;;;13.43;86.03
77583;BME280;66726;52.388;9.986;2023-08-30T06:24:30;100062.47;;;13.47;85.21
77583;BME280;66726;52.388;9.986;2023-08-30T06:27:02;100060.88;;;13.52;83.88
77583;BME280;66726;52.388;9.986;2023-08-30T06:29:34;100065.50;;;13.65;84.92
77583;BME280;66726;52.388;9.986;2023-08-30T06:32:07;100060.16;;;13.71;84.52
77583;BME280;66726;52.388;9.986;2023-08-30T06:34:39;100060.03;;;13.80;84.36
77583;BME280;66726;52.388;9.986;2023-08-30T06:37:11;100054.88;;;13.85;83.44
77583;BME280;66726;52.388;9.986;2023-08-30T06:39:43;100056.13;;;13.89;83.33
77583;BME280;66726;52.388;9.986;2023-08-30T06:42:15;100059.69;;;13.96;82.89
77583;BME280;66726;52.388;9.986;2023-08-30T06:44:47;100057.88;;;14.03;82.32
77583;BME280;66726;52.388;9.986;2023-08-30T06:47:19;100057.06;;;14.09;82.07
77583;BME280;66726;52.388;9.986;2023-08-30T06:49:52;100059.38;;;14.12;82.18
77583;BME280;66726;52.388;9.986;2023-08-30T06:52:25;100062.09;;;14.18;81.61
77583;BME280;66726;52.388;9.986;2023-08-30T06:54:56;100058.19;;;14.21;81.82
77583;BME280;66726;52.388;9.986;2023-08-30T06:57:28;100045.56;;;14.28;82.16
77583;BME280;66726;52.388;9.986;2023-08-30T07:00:00;100050.75;;;14.30;82.31
77583;BME280;66726;52.388;9.986;2023-08-30T07:02:37;100053.03;;;14.33;81.98
77583;BME280;66726;52.388;9.986;2023-08-30T07:05:12;100051.25;;;14.40;81.12
77583;BME280;66726;52.388;9.986;2023-08-30T07:07:44;100045.66;;;14.41;81.30
77583;BME280;66726;52.388;9.986;2023-08-30T07:10:16;100050.66;;;14.44;80.95
77583;BME280;66726;52.388;9.986;2023-08-30T07:12:47;100046.53;;;14.48;81.10
77583;BME280;66726;52.388;9.986;2023-08-30T07:15:20;100048.81;;;14.51;79.85
77583;BME280;66726;52.388;9.986;2023-08-30T07:17:52;100045.69;;;14.54;80.25
77583;BME280;66726;52.388;9.986;2023-08-30T07:20:28;100053.16;;;14.59;80.16
77583;BME280;66726;52.388;9.986;2023-08-30T07:23:00;100056.06;;;14.57;79.05
77583;BME280;66726;52.388;9.986;2023-08-30T07:25:33;100052.34;;;14.58;79.89
77583;BME280;66726;52.388;9.986;2023-08-30T07:28:08;100046.56;;;14.61;80.03
77583;BME280;66726;52.388;9.986;2023-08-30T07:30:40;100047.38;;;14.62;80.81
77583;BME280;66726;52.388;9.986;2023-08-30T07:33:12;100045.31;;;14.64;81.78
77583;BME280;66726;52.388;9.986;2023-08-30T07:35:45;100045.72;;;14.67;81.23
77583;BME280;66726;52.388;9.986;2023-08-30T07:38:17;100044.50;;;14.70;81.14
77583;BME280;66726;52.388;9.986;2023-08-30T07:40:49;100047.00;;;14.71;80.37
77583;BME280;66726;52.388;9.986;2023-08-30T07:43:21;100047.00;;;14.78;80.54
77583;BME280;66726;52.388;9.986;2023-08-30T07:45:53;100046.19;;;14.84;80.89
77583;BME280;66726;52.388;9.986;2023-08-30T07:48:25;100043.91;;;14.88;80.88
77583;BME280;66726;52.388;9.986;2023-08-30T07:50:58;100050.56;;;14.92;79.25
77583;BME280;66726;52.388;9.986;2023-08-30T07:53:31;100046.00;;;14.99;79.38
77583;BME280;66726;52.388;9.986;2023-08-30T07:56:03;100049.72;;;15.04;79.18
77583;BME280;66726;52.388;9.986;2023-08-30T07:58:35;100044.56;;;15.09;80.36
77583;BME280;66726;52.388;9.986;2023-08-30T08:01:07;100052.00;;;15.14;79.33
77583;BME280;66726;52.388;9.986;2023-08-30T08:03:41;100042.06;;;15.21;79.59
77583;BME280;66726;52.388;9.986;2023-08-30T08:06:35;100040.44;;;15.27;80.02
77583;BME280;66726;52.388;9.986;2023-08-30T08:09:08;100037.09;;;15.31;79.87
77583;BME280;66726;52.388;9.986;2023-08-30T08:11:40;100042.28;;;15.39;79.30
77583;BME280;66726;52.388;9.986;2023-08-30T08:14:14;100040.41;;;15.46;78.74
77583;BME280;66726;52.388;9.986;2023-08-30T08:16:46;100042.28;;;15.52;79.29
77583;BME280;66726;52.388;9.986;2023-08-30T08:19:18;100042.94;;;15.54;79.44
77583;BME280;66726;52.388;9.986;2023-08-30T08:21:56;100038.97;;;15.63;79.37
77583;BME280;66726;52.388;9.986;2023-08-30T08:24:28;100041.47;;;15.71;79.02
77583;BME280;66726;52.388;9.986;2023-08-30T08:27:00;100044.16;;;15.78;76.64
77583;BME280;66726;52.388;9.986;2023-08-30T08:29:32;100043.72;;;15.81;77.99
77583;BME280;66726;52.388;9.986;2023-08-30T08:32:05;100042.66;;;15.95;75.95
77583;BME280;66726;52.388;9.986;2023-08-30T08:34:37;100046.75;;;16.04;76.36
77583;BME280;66726;52.388;9.986;2023-08-30T08:37:11;100042.81;;;16.07;76.16
77583;BME280;66726;52.388;9.986;2023-08-30T08:39:45;100037.81;;;16.10;78.11
77583;BME280;66726;52.388;9.986;2023-08-30T08:42:23;100036.94;;;16.16;75.53
77583;BME280;66726;52.388;9.986;2023-08-30T08:44:59;100033.19;;;16.24;74.79
77583;BME280;66726;52.388;9.986;2023-08-30T08:47:33;100034.81;;;16.32;74.72
77583;BME280;66726;52.388;9.986;2023-08-30T08:50:07;100040.38;;;16.43;73.41
77583;BME280;66726;52.388;9.986;2023-08-30T08:52:41;100033.50;;;16.47;73.98
77583;BME280;66726;52.388;9.986;2023-08-30T08:55:34;100032.03;;;16.51;75.95
77583;BME280;66726;52.388;9.986;2023-08-30T08:58:08;100035.97;;;16.55;75.93
77583;BME280;66726;52.388;9.986;2023-08-30T09:00:40;100028.03;;;16.67;72.84
77583;BME280;66726;52.388;9.986;2023-08-30T09:03:14;100028.00;;;16.73;73.86
77583;BME280;66726;52.388;9.986;2023-08-30T09:05:49;100032.53;;;16.80;74.88
77583;BME280;66726;52.388;9.986;2023-08-30T09:08:23;100027.03;;;16.93;73.41
77583;BME280;66726;52.388;9.986;2023-08-30T09:10:58;100029.91;;;16.98;73.38
77583;BME280;66726;52.388;9.986;2023-08-30T09:13:31;100025.28;;;17.05;73.90
77583;BME280;66726;52.388;9.986;2023-08-30T09:16:02;100030.28;;;17.26;70.82
77583;BME280;66726;52.388;9.986;2023-08-30T09:18:44;100025.06;;;17.31;69.27
77583;BME280;66726;52.388;9.986;2023-08-30T09:21:34;100033.34;;;17.36;70.50
77583;BME280;66726;52.388;9.986;2023-08-30T09:24:08;100023.50;;;17.42;68.84
77583;BME280;66726;52.388;9.986;2023-08-30T09:26:49;100033.63;;;17.53;68.68
77583;BME280;66726;52.388;9.986;2023-08-30T09:29:23;100026.50;;;17.58;70.39
77583;BME280;66726;52.388;9.986;2023-08-30T09:31:57;100025.41;;;17.66;69.31
77583;BME280;66726;52.388;9.986;2023-08-30T09:34:29;100020.97;;;17.71;68.22
77583;BME280;66726;52.388;9.986;2023-08-30T09:37:01;100023.84;;;17.77;67.86
77583;BME280;66726;52.388;9.986;2023-08-30T09:39:47;100019.19;;;17.84;66.90
77583;BME280;66726;52.388;9.986;2023-08-30T09:42:20;100017.38;;;17.96;67.89
77583;BME280;66726;52.388;9.986;2023-08-30T09:44:52;100021.13;;;17.95;69.38
77583;BME280;66726;52.388;9.986;2023-08-30T09:47:27;100016.31;;;17.97;69.25
77583;BME280;66726;52.388;9.986;2023-08-30T09:50:04;100014.97;;;18.06;69.00
77583;BME280;66726;52.388;9.986;2023-08-30T09:52:37;100022.16;;;18.12;67.56
77583;BME280;66726;52.388;9.986;2023-08-30T09:55:12;100016.16;;;18.10;66.05
77583;BME280;66726;52.388;9.986;2023-08-30T09:57:45;100023.84;;;18.13;66.89
77583;BME280;66726;52.388;9.986;2023-08-30T10:00:19;100020.47;;;18.17;65.77
77583;BME280;66726;52.388;9.986;2023-08-30T10:02:53;100014.50;;;18.27;66.53
77583;BME280;66726;52.388;9.986;2023-08-30T10:05:46;100019.75;;;18.40;66.97
77583;BME280;66726;52.388;9.986;2023-08-30T10:08:19;100009.06;;;18.45;67.60
77583;BME280;66726;52.388;9.986;2023-08-30T10:10:54;100007.69;;;18.54;66.04
77583;BME280;66726;52.388;9.986;2023-08-30T10:13:26;100010.69;;;18.64;66.94
77583;BME280;66726;52.388;9.986;2023-08-30T10:16:02;100014.50;;;18.75;64.95
77583;BME280;66726;52.388;9.986;2023-08-30T10:18:39;100014.28;;;18.77;64.44
77583;BME280;66726;52.388;9.986;2023-08-30T10:21:22;100012.25;;;18.84;63.81
77583;BME280;66726;52.388;9.986;2023-08-30T10:23:55;100010.03;;;18.81;66.32
77583;BME280;66726;52.388;9.986;2023-08-30T10:26:32;100007.56;;;18.79;63.83
77583;BME280;66726;52.388;9.986;2023-08-30T10:29:07;100002.13;;;18.79;64.25
77583;BME280;66726;52.388;9.986;2023-08-30T10:31:41;100002.13;;;18.79;64.79
77583;BME280;66726;52.388;9.986;2023-08-30T10:34:18;100011.47;;;18.83;64.06
77583;BME280;66726;52.388;9.986;2023-08-30T10:37:00;100009.66;;;18.77;62.70
77583;BME280;66726;52.388;9.986;2023-08-30T10:39:38;100007.47;;;18.86;62.71
77583;BME280;66726;52.388;9.986;2023-08-30T10:42:21;100011.13;;;18.91;63.03
77583;BME280;66726;52.388;9.986;2023-08-30T10:44:56;100005.06;;;18.78;62.03
77583;BME280;66726;52.388;9.986;2023-08-30T10:47:43;100002.13;;;18.79;63.76
77583;BME280;66726;52.388;9.986;2023-08-30T10:50:15;100006.50;;;18.80;63.27
77583;BME280;66726;52.388;9.986;2023-08-30T10:52:56;99998.50;;;18.85;64.17
77583;BME280;66726;52.388;9.986;2023-08-30T10:55:28;100006.25;;;18.82;62.59
77583;BME280;66726;52.388;9.986;2023-08-30T10:58:05;99998.28;;;18.87;61.88
77583;BME280;66726;52.388;9.986;2023-08-30T11:00:38;99997.34;;;18.93;62.28
77583;BME280;66726;52.388;9.986;2023-08-30T11:03:15;99993.91;;;18.97;63.98
77583;BME280;66726;52.388;9.986;2023-08-30T11:05:48;99999.69;;;19.01;63.58
77583;BME280;66726;52.388;9.986;2023-08-30T11:08:20;99994.63;;;19.04;63.69
77583;BME280;66726;52.388;9.986;2023-08-30T11:11:00;99987.31;;;19.05;62.46
77583;BME280;66726;52.388;9.986;2023-08-30T11:13:34;99983.41;;;19.01;60.88
77583;BME280;66726;52.388;9.986;2023-08-30T11:16:06;99984.03;;;19.03;61.12
77583;BME280;66726;52.388;9.986;2023-08-30T11:18:40;99973.28;;;19.08;61.78
77583;BME280;66726;52.388;9.986;2023-08-30T11:21:13;99982.03;;;19.10;60.88
77583;BME280;66726;52.388;9.986;2023-08-30T11:23:46;99968.34;;;19.16;62.27
77583;BME280;66726;52.388;9.986;2023-08-30T11:26:19;99962.69;;;19.18;61.35
77583;BME280;66726;52.388;9.986;2023-08-30T11:28:53;99965.06;;;19.26;62.28
77583;BME280;66726;52.388;9.986;2023-08-30T11:31:26;99954.69;;;19.35;60.87
77583;BME280;66726;52.388;9.986;2023-08-30T11:33:59;99956.34;;;19.47;61.96
77583;BME280;66726;52.388;9.986;2023-08-30T11:36:35;99958.25;;;19.58;59.63
77583;BME280;66726;52.388;9.986;2023-08-30T11:39:08;99950.53;;;19.67;61.37
77583;BME280;66726;52.388;9.986;2023-08-30T11:41:41;99958.34;;;19.75;62.38
77583;BME280;66726;52.388;9.986;2023-08-30T11:44:15;99950.53;;;19.79;61.53
77583;BME280;66726;52.388;9.986;2023-08-30T11:46:47;99947.91;;;19.84;61.19
77583;BME280;66726;52.388;9.986;2023-08-30T11:49:20;99950.59;;;19.95;59.06
77583;BME280;66726;52.388;9.986;2023-08-30T11:51:52;99933.78;;;20.10;59.71
77583;BME280;66726;52.388;9.986;2023-08-30T11:54:27;99936.59;;;20.15;58.21
77583;BME280;66726;52.388;9.986;2023-08-30T11:56:59;99928.38;;;20.10;57.88
77583;BME280;66726;52.388;9.986;2023-08-30T11:59:36;99935.34;;;20.06;56.44
77583;BME280;66726;52.388;9.986;2023-08-30T12:02:09;99938.34;;;19.93;56.66
77583;BME280;66726;52.388;9.986;2023-08-30T12:04:44;99930.75;;;19.95;58.33
77583;BME280;66726;52.388;9.986;2023-08-30T12:07:25;99931.09;;;19.98;59.57
77583;BME280;66726;52.388;9.986;2023-08-30T12:10:08;99924.13;;;20.02;60.38
77583;BME280;66726;52.388;9.986;2023-08-30T12:12:45;99919.13;;;20.11;59.96
77583;BME280;66726;52.388;9.986;2023-08-30T12:15:22;99921.94;;;20.16;57.03
77583;BME280;66726;52.388;9.986;2023-08-30T12:17:57;99921.31;;;20.25;58.46
77583;BME280;66726;52.388;9.986;2023-08-30T12:20:37;99920.03;;;20.28;58.10
77583;BME280;66726;52.388;9.986;2023-08-30T12:23:19;99908.19;;;20.34;59.83
77583;BME280;66726;52.388;9.986;2023-08-30T12:26:00;99909.44;;;20.43;58.74
77583;BME280;66726;52.388;9.986;2023-08-30T12:28:34;99906.91;;;20.53;57.93
77583;BME280;66726;52.388;9.986;2023-08-30T12:31:08;99888.53;;;20.60;57.64
77583;BME280;66726;52.388;9.986;2023-08-30T12:33:41;99882.84;;;20.62;57.41
77583;BME280;66726;52.388;9.986;2023-08-30T12:36:13;99885.31;;;20.63;56.26
77583;BME280;66726;52.388;9.986;2023-08-30T12:38:45;99885.50;;;20.73;57.47
77583;BME280;66726;52.388;9.986;2023-08-30T12:41:17;99889.03;;;20.91;57.02
77583;BME280;66726;52.388;9.986;2023-08-30T12:43:51;99882.34;;;20.98;54.69
77583;BME280;66726;52.388;9.986;2023-08-30T12:46:24;99887.13;;;21.08;54.22
77583;BME280;66726;52.388;9.986;2023-08-30T12:48:56;99889.84;;;21.24;54.53
77583;BME280;66726;52.388;9.986;2023-08-30T12:51:29;99877.28;;;21.40;55.60
77583;BME280;66726;52.388;9.986;2023-08-30T12:54:01;99876.66;;;21.55;54.14
77583;BME280;66726;52.388;9.986;2023-08-30T12:56:33;99867.84;;;21.69;54.66
77583;BME280;66726;52.388;9.986;2023-08-30T12:59:05;99871.00;;;21.83;54.01
77583;BME280;66726;52.388;9.986;2023-08-30T13:01:38;99863.00;;;21.93;54.80
77583;BME280;66726;52.388;9.986;2023-08-30T13:04:11;99862.84;;;21.83;52.72
77583;BME280;66726;52.388;9.986;2023-08-30T13:06:43;99856.50;;;21.99;53.40
77583;BME280;66726;52.388;9.986;2023-08-30T13:09:15;99853.88;;;22.09;53.29
77583;BME280;66726;52.388;9.986;2023-08-30T13:11:47;99858.13;;;22.22;53.05
77583;BME280;66726;52.388;9.986;2023-08-30T13:14:19;99850.66;;;22.39;51.96
77583;BME280;66726;52.388;9.986;2023-08-30T13:16:52;99849.16;;;22.53;51.20
77583;BME280;66726;52.388;9.986;2023-08-30T13:19:24;99846.41;;;22.53;49.57
77583;BME280;66726;52.388;9.986;2023-08-30T13:21:56;99840.47;;;22.61;50.19
77583;BME280;66726;52.388;9.986;2023-08-30T13:24:28;99845.78;;;22.73;49.42
77583;BME280;66726;52.388;9.986;2023-08-30T13:27:00;99852.59;;;22.70;50.45